Dripping Springs' Hourly Summary for Tuesday, May 15, 2018
Hour Temp
(f)
RH
(%)
Solar Rad.
(MJ/m2)
Rainfall
(in)
Wind
(mph)
5/15/2018 12:00 AM 77 69 0 0 3.98
5/15/2018 1:00 AM 76 74 0 0 4.72
5/15/2018 2:00 AM 74 80 0 0 6.18
5/15/2018 3:00 AM 73 84 0 0 7.64
5/15/2018 4:00 AM 72 87 0 0 7.64
5/15/2018 5:00 AM 71 88 0 0 6.24
5/15/2018 6:00 AM 71 89 0.01 0 3.47
5/15/2018 7:00 AM 70 89 0.21 0 1.9
5/15/2018 8:00 AM 73 89 0.57 0 2.39
5/15/2018 9:00 AM 74 78 0.83 0 4.13
5/15/2018 10:00 AM 78 71 2.4 0 4.49
5/15/2018 11:00 AM 81 63 2.89 0 4.49
5/15/2018 12:00 PM 84 57 3.26 0 4.36
5/15/2018 1:00 PM 85 53 3.26 0 5.16
5/15/2018 2:00 PM 86 51 2.97 0 5.81
5/15/2018 3:00 PM 86 50 2.49 0 5.81
5/15/2018 4:00 PM 86 50 1.98 0 6.73
5/15/2018 5:00 PM 86 50 1.98 0 6.73
5/15/2018 6:00 PM 86 50 0.95 0 5.83
5/15/2018 7:00 PM 86 50 0.47 0 7.19
5/15/2018 8:00 PM 80 70 0.15 0 7.19
5/15/2018 9:00 PM 76 70 0 0.03 7.54
5/15/2018 10:00 PM 74 70 0 0 7.54
5/15/2018 11:00 PM 74 65 0 0 6.7
Data Summary 78 68 24.42 0.03 5.58